createdAt,value
2022-10-19T00:01:13.724Z,20.73
2022-10-19T00:03:42.881Z,14.63
2022-10-19T00:06:12.677Z,15.32
2022-10-19T00:08:40.072Z,15.10
2022-10-19T00:11:08.373Z,14.40
2022-10-19T00:13:36.068Z,13.68
2022-10-19T00:16:12.430Z,11.23
2022-10-19T00:18:41.352Z,6.13
2022-10-19T00:21:11.047Z,4.95
2022-10-19T00:23:38.568Z,4.80
2022-10-19T00:26:06.177Z,3.72
2022-10-19T00:28:33.606Z,4.03
2022-10-19T00:31:09.877Z,1.67
2022-10-19T00:33:39.567Z,1.55
2022-10-19T00:36:33.288Z,1.88
2022-10-19T00:39:01.482Z,2.17
2022-10-19T00:41:31.767Z,2.08
2022-10-19T00:44:06.844Z,1.88
2022-10-19T00:46:37.913Z,2.10
2022-10-19T00:49:10.885Z,2.10
2022-10-19T00:51:42.302Z,2.03
2022-10-19T00:54:10.113Z,2.97
2022-10-19T00:56:41.356Z,2.78
2022-10-19T00:59:10.629Z,4.80
2022-10-19T01:01:38.107Z,6.00
2022-10-19T01:04:05.895Z,5.38
2022-10-19T01:06:34.237Z,7.75
2022-10-19T01:09:01.432Z,10.25
2022-10-19T01:11:47.083Z,11.90
2022-10-19T01:14:40.487Z,10.23
2022-10-19T01:17:22.547Z,9.27
2022-10-19T01:20:11.474Z,6.30
2022-10-19T01:23:06.743Z,7.60
2022-10-19T01:25:44.308Z,7.55
2022-10-19T01:28:39.473Z,7.20
2022-10-19T01:31:47.167Z,6.90
2022-10-19T01:34:19.264Z,7.47
2022-10-19T01:37:00.082Z,5.72
2022-10-19T01:39:47.717Z,5.05
2022-10-19T01:42:27.362Z,4.63
2022-10-19T01:45:04.308Z,4.80
2022-10-19T01:47:38.882Z,5.85
2022-10-19T01:50:36.391Z,5.80
2022-10-19T01:53:07.229Z,5.22
2022-10-19T01:55:37.873Z,5.50
2022-10-19T01:58:09.688Z,7.40
2022-10-19T02:00:41.314Z,9.70
2022-10-19T02:03:10.250Z,10.32
2022-10-19T02:05:39.542Z,11.63
2022-10-19T02:08:14.112Z,12.63
2022-10-19T02:10:44.602Z,12.77
2022-10-19T02:13:15.529Z,12.57
2022-10-19T02:15:46.517Z,12.13
2022-10-19T02:18:18.012Z,13.40
2022-10-19T02:20:46.539Z,14.02
2022-10-19T02:23:17.606Z,14.48
2022-10-19T02:25:45.267Z,13.55
2022-10-19T02:28:12.631Z,16.55
2022-10-19T02:30:40.222Z,15.50
2022-10-19T02:33:08.116Z,13.80
2022-10-19T02:35:35.817Z,13.82
2022-10-19T02:38:05.294Z,13.43
2022-10-19T02:40:36.443Z,12.65
2022-10-19T02:43:10.444Z,12.32
2022-10-19T02:45:44.320Z,12.32
2022-10-19T02:48:21.615Z,10.93
2022-10-19T02:50:49.300Z,8.80
2022-10-19T02:53:16.871Z,9.45
2022-10-19T02:55:44.630Z,9.63
2022-10-19T02:58:11.794Z,10.70
2022-10-19T03:00:39.330Z,9.80
2022-10-19T03:03:06.567Z,9.63
2022-10-19T03:05:33.989Z,12.50
2022-10-19T03:08:01.253Z,10.48
2022-10-19T03:10:28.992Z,10.48
2022-10-19T03:12:58.707Z,10.32
2022-10-19T03:15:29.307Z,10.60
2022-10-19T03:17:57.402Z,12.15
2022-10-19T03:20:24.938Z,11.10
2022-10-19T03:25:22.947Z,10.90
2022-10-19T03:27:51.694Z,9.95
2022-10-19T03:30:19.067Z,9.43
2022-10-19T03:32:46.278Z,10.73
2022-10-19T03:35:13.682Z,9.75
2022-10-19T03:37:40.832Z,9.25
2022-10-19T03:40:08.773Z,8.77
2022-10-19T03:42:36.217Z,7.90
2022-10-19T03:45:03.953Z,6.88
2022-10-19T03:47:31.349Z,8.20
2022-10-19T03:49:58.997Z,9.10
2022-10-19T03:52:26.163Z,9.20
2022-10-19T03:54:53.563Z,8.35
2022-10-19T03:57:20.833Z,7.25
2022-10-19T03:59:49.078Z,7.53
2022-10-19T04:02:16.182Z,8.75
2022-10-19T04:04:43.537Z,7.60
2022-10-19T04:07:10.768Z,8.43
2022-10-19T04:09:38.132Z,8.82
2022-10-19T04:12:05.523Z,9.25
2022-10-19T04:14:39.264Z,8.93
2022-10-19T04:17:12.941Z,10.23
2022-10-19T04:19:40.347Z,9.88
2022-10-19T04:22:07.544Z,11.70
2022-10-19T04:24:34.957Z,12.48
2022-10-19T04:27:02.144Z,13.82
2022-10-19T04:29:30.777Z,16.23
2022-10-19T04:31:59.794Z,18.70
2022-10-19T04:34:27.235Z,17.90
2022-10-19T04:36:54.626Z,20.73
2022-10-19T04:39:22.169Z,18.65
2022-10-19T04:41:49.378Z,17.92
2022-10-19T04:44:16.852Z,16.10
2022-10-19T04:46:44.195Z,15.77
2022-10-19T04:49:14.142Z,15.32
2022-10-19T04:51:44.946Z,14.60
2022-10-19T04:54:12.444Z,14.18
2022-10-19T04:56:39.803Z,14.60
2022-10-19T04:59:07.267Z,13.65
2022-10-19T05:01:34.549Z,13.27
2022-10-19T05:04:03.256Z,18.73
2022-10-19T05:06:31.802Z,19.27
2022-10-19T05:08:59.537Z,26.08
2022-10-19T05:11:27.467Z,36.00
2022-10-19T05:13:56.826Z,35.78
2022-10-19T05:16:25.005Z,59.60
2022-10-19T05:18:59.088Z,44.22
2022-10-19T05:21:29.099Z,17.50
2022-10-19T05:23:57.488Z,9.48
2022-10-19T05:26:26.835Z,10.52
2022-10-19T05:28:57.002Z,9.50
2022-10-19T05:31:27.165Z,10.02
2022-10-19T05:33:56.475Z,8.98
2022-10-19T05:36:34.912Z,8.75
2022-10-19T05:39:12.764Z,11.75
2022-10-19T05:41:40.001Z,11.88
2022-10-19T05:44:07.481Z,11.05
2022-10-19T05:46:34.895Z,11.30
2022-10-19T05:49:02.507Z,11.57
2022-10-19T05:51:29.724Z,11.65
2022-10-19T05:53:57.483Z,10.60
2022-10-19T05:56:27.767Z,11.80
2022-10-19T05:58:57.401Z,11.93
2022-10-19T06:01:25.274Z,14.25
2022-10-19T06:03:54.833Z,16.55
2022-10-19T06:06:22.457Z,18.05
2022-10-19T06:08:51.057Z,14.88
2022-10-19T06:11:21.022Z,13.52
2022-10-19T06:13:50.784Z,12.27
2022-10-19T06:16:19.773Z,13.35
2022-10-19T06:18:47.519Z,15.00
2022-10-19T06:21:17.668Z,15.98
2022-10-19T06:23:45.895Z,16.40
2022-10-19T06:26:14.738Z,15.32
2022-10-19T06:28:44.332Z,12.80
2022-10-19T06:31:12.849Z,12.45
2022-10-19T06:33:41.767Z,14.43
2022-10-19T06:36:11.436Z,14.60
2022-10-19T06:38:39.157Z,12.85
2022-10-19T06:41:06.848Z,11.35
2022-10-19T06:43:34.959Z,11.88
2022-10-19T06:46:11.842Z,11.20
2022-10-19T06:48:39.563Z,13.50
2022-10-19T06:51:08.004Z,11.77
2022-10-19T06:53:36.567Z,12.02
2022-10-19T06:56:06.447Z,12.77
2022-10-19T06:58:38.603Z,12.05
2022-10-19T07:01:07.943Z,12.05
2022-10-19T07:03:36.438Z,11.52
2022-10-19T07:06:06.918Z,12.85
2022-10-19T07:08:36.173Z,13.40
2022-10-19T07:11:09.678Z,13.98
2022-10-19T07:13:37.641Z,14.60
2022-10-19T07:16:08.387Z,15.45
2022-10-19T07:18:36.685Z,14.32
2022-10-19T07:21:09.908Z,16.70
2022-10-19T07:23:39.103Z,13.98
2022-10-19T07:26:24.049Z,12.82
2022-10-19T07:28:51.813Z,13.07
2022-10-19T07:31:21.395Z,13.00
2022-10-19T07:34:03.182Z,13.88
2022-10-19T07:36:36.247Z,13.43
2022-10-19T07:39:06.607Z,13.45
2022-10-19T07:41:34.878Z,13.38
2022-10-19T07:44:02.595Z,13.10
2022-10-19T07:46:36.106Z,11.40
2022-10-19T07:49:06.344Z,11.18
2022-10-19T07:51:34.046Z,9.80
2022-10-19T07:54:01.612Z,10.20
2022-10-19T07:56:30.125Z,9.18
2022-10-19T07:58:59.657Z,8.93
2022-10-19T08:01:32.328Z,8.43
2022-10-19T08:06:48.513Z,7.50
2022-10-19T08:09:40.162Z,6.72
2022-10-19T08:12:05.408Z,6.68
2022-10-19T08:14:33.667Z,7.28
2022-10-19T08:17:01.566Z,6.85
2022-10-19T08:19:29.469Z,6.35
2022-10-19T08:21:56.683Z,5.97
2022-10-19T08:24:25.972Z,6.00
2022-10-19T08:26:53.298Z,5.63
2022-10-19T08:29:21.450Z,5.55
2022-10-19T08:31:49.368Z,4.80
2022-10-19T08:34:17.488Z,4.30
2022-10-19T08:36:45.094Z,5.18
2022-10-19T08:39:13.632Z,4.55
2022-10-19T08:41:41.002Z,3.65
2022-10-19T08:44:30.473Z,3.58
2022-10-19T08:47:12.932Z,3.35
2022-10-19T08:49:42.323Z,3.78
2022-10-19T08:52:17.212Z,3.85
2022-10-19T08:54:51.419Z,3.22
2022-10-19T08:57:46.012Z,3.65
2022-10-19T09:00:19.794Z,3.40
2022-10-19T09:03:12.338Z,3.25
2022-10-19T09:05:46.857Z,3.65
2022-10-19T09:08:17.764Z,3.60
2022-10-19T09:10:50.963Z,3.80
2022-10-19T09:14:04.226Z,3.70
2022-10-19T09:16:33.600Z,3.95
2022-10-19T09:19:00.865Z,3.65
2022-10-19T09:21:48.667Z,3.75
2022-10-19T09:24:36.628Z,4.47
2022-10-19T09:27:07.216Z,4.38
2022-10-19T09:29:43.474Z,4.43
2022-10-19T09:32:15.879Z,4.40
2022-10-19T09:34:59.073Z,4.35
2022-10-19T09:37:27.066Z,3.95
2022-10-19T09:39:55.896Z,4.28
2022-10-19T09:42:34.819Z,4.70
2022-10-19T09:45:42.870Z,3.58
2022-10-19T09:48:38.494Z,4.22
2022-10-19T09:51:13.258Z,5.90
2022-10-19T09:53:56.640Z,4.30
2022-10-19T09:56:28.429Z,3.97
2022-10-19T09:58:58.669Z,3.47
2022-10-19T10:01:41.565Z,4.47
2022-10-19T10:04:16.322Z,4.15
2022-10-19T10:06:46.583Z,4.03
2022-10-19T10:09:16.908Z,4.97
2022-10-19T10:11:48.215Z,6.85
2022-10-19T10:14:32.772Z,6.72
2022-10-19T10:17:06.786Z,9.43
2022-10-19T10:19:36.267Z,6.70
2022-10-19T10:22:04.495Z,6.80
2022-10-19T10:24:33.581Z,12.02
2022-10-19T10:27:06.605Z,6.00
2022-10-19T10:29:36.838Z,7.03
2022-10-19T10:32:21.532Z,7.93
2022-10-19T10:35:01.055Z,7.25
2022-10-19T10:37:44.472Z,6.30
2022-10-19T10:40:26.935Z,6.43
2022-10-19T10:42:57.904Z,6.45
2022-10-19T10:45:31.436Z,6.53
2022-10-19T10:48:15.289Z,6.88
2022-10-19T10:50:45.185Z,5.90
2022-10-19T10:53:34.985Z,6.57
2022-10-19T10:56:06.757Z,5.88
2022-10-19T10:58:50.365Z,6.03
2022-10-19T11:01:24.618Z,5.80
2022-10-19T11:04:08.135Z,5.63
2022-10-19T11:06:47.813Z,6.68
2022-10-19T11:09:38.579Z,5.78
2022-10-19T11:12:12.715Z,5.97
2022-10-19T11:14:48.673Z,5.68
2022-10-19T11:17:30.038Z,5.68
2022-10-19T11:19:57.465Z,4.53
2022-10-19T11:22:29.551Z,3.58
2022-10-19T11:25:58.366Z,3.78
2022-10-19T11:28:41.258Z,3.15
2022-10-19T11:31:37.137Z,2.30
2022-10-19T11:34:27.348Z,2.67
2022-10-19T11:37:23.983Z,3.05
2022-10-19T11:42:58.275Z,2.30
2022-10-19T11:45:59.404Z,2.38
2022-10-19T11:48:51.672Z,2.60
2022-10-19T11:51:44.360Z,2.42
2022-10-19T11:54:18.415Z,2.33
2022-10-19T11:57:09.365Z,2.40
2022-10-19T11:59:52.765Z,2.50
2022-10-19T12:02:41.895Z,2.15
2022-10-19T12:05:29.787Z,2.67
2022-10-19T12:11:24.777Z,1.98
2022-10-19T12:13:59.611Z,2.45
2022-10-19T12:16:50.898Z,2.22
2022-10-19T12:19:29.520Z,2.00
2022-10-19T12:22:12.536Z,2.38
2022-10-19T12:24:40.160Z,2.75
2022-10-19T12:27:11.112Z,2.72
2022-10-19T12:29:43.114Z,2.42
2022-10-19T12:32:15.597Z,2.00
2022-10-19T12:35:24.371Z,2.20
2022-10-19T12:38:03.712Z,2.53
2022-10-19T12:40:43.364Z,2.42
2022-10-19T12:43:20.388Z,1.98
2022-10-19T12:46:13.577Z,1.73
2022-10-19T12:48:40.993Z,1.63
2022-10-19T12:51:16.112Z,2.00
2022-10-19T12:53:49.252Z,1.30
2022-10-19T12:56:24.488Z,2.05
2022-10-19T12:58:56.877Z,1.45
2022-10-19T13:01:27.072Z,1.33
2022-10-19T13:04:06.923Z,1.73
2022-10-19T13:06:38.382Z,1.75
2022-10-19T13:09:09.945Z,2.25
2022-10-19T13:12:22.157Z,2.05
2022-10-19T13:15:01.594Z,1.35
2022-10-19T13:17:38.163Z,1.95
2022-10-19T13:20:14.693Z,1.20
2022-10-19T13:22:49.463Z,2.33
2022-10-19T13:25:17.215Z,1.40
2022-10-19T13:27:46.591Z,1.45
2022-10-19T13:30:35.589Z,1.55
2022-10-19T13:33:24.946Z,2.00
2022-10-19T13:36:13.199Z,2.33
2022-10-19T13:38:49.772Z,2.50
2022-10-19T13:41:25.755Z,2.20
2022-10-19T13:44:02.096Z,2.92
2022-10-19T13:46:29.316Z,2.10
2022-10-19T13:49:05.131Z,2.72
2022-10-19T13:51:42.846Z,2.13
2022-10-19T13:54:29.121Z,1.60
2022-10-19T13:57:19.547Z,2.15
2022-10-19T14:00:11.641Z,2.25
2022-10-19T14:02:46.340Z,1.70
2022-10-19T14:05:32.961Z,1.48
2022-10-19T14:11:01.521Z,2.38
2022-10-19T14:13:29.634Z,3.33
2022-10-19T14:16:00.551Z,1.80
2022-10-19T14:18:34.266Z,59.38
2022-10-19T14:21:07.127Z,3.30
2022-10-19T14:23:40.443Z,2.30
2022-10-19T14:26:15.485Z,3.60
2022-10-19T14:28:43.371Z,2.97
2022-10-19T14:31:24.627Z,2.70
2022-10-19T14:33:57.406Z,2.72
2022-10-19T14:36:36.169Z,4.00
2022-10-19T14:39:04.817Z,2.78
2022-10-19T14:41:37.520Z,3.33
2022-10-19T14:44:36.578Z,2.30
2022-10-19T14:47:17.533Z,2.80
2022-10-19T14:49:45.163Z,2.60
2022-10-19T14:52:18.315Z,2.53
2022-10-19T14:54:49.386Z,2.55
2022-10-19T14:57:32.041Z,2.28
2022-10-19T15:00:05.466Z,2.03
2022-10-19T15:02:38.868Z,2.78
2022-10-19T15:05:24.917Z,2.30
2022-10-19T15:07:54.867Z,2.50
2022-10-19T15:10:30.291Z,2.53
2022-10-19T15:13:07.165Z,3.10
2022-10-19T15:15:36.205Z,3.08
2022-10-19T15:18:20.625Z,3.13
2022-10-19T15:21:13.226Z,3.85
2022-10-19T15:23:49.681Z,3.85
2022-10-19T15:26:27.396Z,3.08
2022-10-19T15:29:07.353Z,2.72
2022-10-19T15:31:36.133Z,3.28
2022-10-19T15:34:04.515Z,2.92
2022-10-19T15:36:33.032Z,3.03
2022-10-19T15:39:24.698Z,2.92
2022-10-19T15:41:53.155Z,2.90
2022-10-19T15:44:41.455Z,3.25
2022-10-19T15:47:14.956Z,6.28
2022-10-19T15:49:42.914Z,5.53
2022-10-19T15:52:17.199Z,7.00
2022-10-19T15:54:48.928Z,4.47
2022-10-19T15:57:25.217Z,3.05
2022-10-19T15:59:53.642Z,3.30
2022-10-19T16:02:20.910Z,3.33
2022-10-19T16:04:48.518Z,3.22
2022-10-19T16:07:28.445Z,5.28
2022-10-19T16:09:56.470Z,9.75
2022-10-19T16:12:25.217Z,5.07
2022-10-19T16:14:56.962Z,4.60
2022-10-19T16:17:24.354Z,4.45
2022-10-19T16:19:51.947Z,5.65
2022-10-19T16:22:19.363Z,3.33
2022-10-19T16:24:46.958Z,2.78
2022-10-19T16:27:17.279Z,2.13
2022-10-19T16:29:45.422Z,2.38
2022-10-19T16:32:13.013Z,2.70
2022-10-19T16:34:41.591Z,4.18
2022-10-19T16:37:09.003Z,3.88
2022-10-19T16:39:36.545Z,4.25
2022-10-19T16:42:06.768Z,4.00
2022-10-19T16:44:34.579Z,3.92
2022-10-19T16:47:01.937Z,4.68
2022-10-19T16:49:29.729Z,4.30
2022-10-19T16:51:57.715Z,3.35
2022-10-19T16:54:27.106Z,4.20
2022-10-19T16:56:55.881Z,5.35
2022-10-19T16:59:23.517Z,4.55
2022-10-19T17:01:51.119Z,4.85
2022-10-19T17:04:19.218Z,3.60
2022-10-19T17:06:47.574Z,3.67
2022-10-19T17:09:41.280Z,4.82
2022-10-19T17:12:03.118Z,4.97
2022-10-19T17:14:30.712Z,4.35
2022-10-19T17:16:58.208Z,5.93
2022-10-19T17:19:26.038Z,5.18
2022-10-19T17:21:56.121Z,4.40
2022-10-19T17:24:23.830Z,3.90
2022-10-19T17:26:52.870Z,3.70
2022-10-19T17:29:22.227Z,3.22
2022-10-19T17:31:50.169Z,3.28
2022-10-19T17:34:18.310Z,4.22
2022-10-19T17:36:46.598Z,3.20
2022-10-19T17:39:18.040Z,3.90
2022-10-19T17:41:46.454Z,4.40
2022-10-19T17:44:14.778Z,4.60
2022-10-19T17:46:42.291Z,4.95
2022-10-19T17:49:10.645Z,3.95
2022-10-19T17:51:39.189Z,4.30
2022-10-19T17:54:09.534Z,4.20
2022-10-19T17:56:38.368Z,4.72
2022-10-19T17:59:08.167Z,3.72
2022-10-19T18:01:35.791Z,3.28
2022-10-19T18:04:03.875Z,3.75
2022-10-19T18:06:35.473Z,3.90
2022-10-19T18:09:06.086Z,3.75
2022-10-19T18:11:37.509Z,4.32
2022-10-19T18:14:08.188Z,4.13
2022-10-19T18:16:38.463Z,4.93
2022-10-19T18:19:07.794Z,5.97
2022-10-19T18:21:41.342Z,10.48
2022-10-19T18:24:15.323Z,4.60
2022-10-19T18:26:43.505Z,4.78
2022-10-19T18:29:18.142Z,4.22
2022-10-19T18:31:51.552Z,4.43
2022-10-19T18:34:25.292Z,4.03
2022-10-19T18:36:55.238Z,4.70
2022-10-19T18:39:22.902Z,4.78
2022-10-19T18:41:54.644Z,4.20
2022-10-19T18:44:26.638Z,4.20
2022-10-19T18:46:57.000Z,5.80
2022-10-19T18:49:25.444Z,4.80
2022-10-19T18:51:55.438Z,4.63
2022-10-19T18:54:26.556Z,5.43
2022-10-19T18:56:54.498Z,5.22
2022-10-19T18:59:24.564Z,7.13
2022-10-19T19:01:53.230Z,6.53
2022-10-19T19:04:20.976Z,6.53
2022-10-19T19:06:48.475Z,6.80
2022-10-19T19:09:17.864Z,7.63
2022-10-19T19:11:45.183Z,7.80
2022-10-19T19:14:16.157Z,7.05
2022-10-19T19:16:45.198Z,7.50
2022-10-19T19:19:15.504Z,7.05
2022-10-19T19:21:44.738Z,7.32
2022-10-19T19:24:18.606Z,8.00
2022-10-19T19:26:49.646Z,7.45
2022-10-19T19:29:18.789Z,7.93
2022-10-19T19:31:47.434Z,7.40
2022-10-19T19:34:15.212Z,6.72
2022-10-19T19:36:47.803Z,8.57
2022-10-19T19:39:20.347Z,7.15
2022-10-19T19:41:49.432Z,7.32
2022-10-19T19:44:17.707Z,7.95
2022-10-19T19:46:45.243Z,7.72
2022-10-19T19:49:13.307Z,7.28
2022-10-19T19:51:40.702Z,7.85
2022-10-19T19:54:08.495Z,7.40
2022-10-19T19:56:37.474Z,8.68
2022-10-19T19:59:05.350Z,10.73
2022-10-19T20:01:33.453Z,8.50
2022-10-19T20:06:37.356Z,9.60
2022-10-19T20:09:09.060Z,9.15
2022-10-19T20:11:41.887Z,6.43
2022-10-19T20:14:11.115Z,7.22
2022-10-19T20:16:38.689Z,7.18
2022-10-19T20:19:12.251Z,7.05
2022-10-19T20:21:40.329Z,7.07
2022-10-19T20:24:08.438Z,7.85
2022-10-19T20:26:36.545Z,8.13
2022-10-19T20:29:04.730Z,9.13
2022-10-19T20:31:33.726Z,8.40
2022-10-19T20:34:01.247Z,8.70
2022-10-19T20:36:28.447Z,8.32
2022-10-19T20:38:57.815Z,9.15
2022-10-19T20:41:27.931Z,8.48
2022-10-19T20:43:56.105Z,7.70
2022-10-19T20:46:26.189Z,8.52
2022-10-19T20:48:59.823Z,7.45
2022-10-19T20:51:33.139Z,6.38
2022-10-19T20:54:03.352Z,7.45
2022-10-19T20:56:33.415Z,7.72
2022-10-19T21:01:37.953Z,8.55
2022-10-19T21:04:08.172Z,8.68
2022-10-19T21:06:39.243Z,8.38
2022-10-19T21:09:07.560Z,8.65
2022-10-19T21:11:37.492Z,7.90
2022-10-19T21:14:12.923Z,8.27
2022-10-19T21:16:40.987Z,7.95
2022-10-19T21:19:15.896Z,7.82
2022-10-19T21:21:46.474Z,7.97
2022-10-19T21:24:19.742Z,8.07
2022-10-19T21:26:47.915Z,7.47
2022-10-19T21:29:16.427Z,6.43
2022-10-19T21:31:48.783Z,5.88
2022-10-19T21:34:20.127Z,5.50
2022-10-19T21:36:47.654Z,5.15
2022-10-19T21:39:15.277Z,5.43
2022-10-19T21:41:42.667Z,4.93
2022-10-19T21:44:10.578Z,5.00
2022-10-19T21:46:37.904Z,4.70
2022-10-19T21:49:05.366Z,4.70
2022-10-19T21:51:36.468Z,4.85
2022-10-19T21:54:05.600Z,4.70
2022-10-19T21:56:33.438Z,4.63
2022-10-19T21:59:01.056Z,5.28
2022-10-19T22:01:30.314Z,5.55
2022-10-19T22:03:59.292Z,5.45
2022-10-19T22:06:28.514Z,6.20
2022-10-19T22:08:56.941Z,6.32
2022-10-19T22:11:24.957Z,7.43
2022-10-19T22:13:57.209Z,7.18
2022-10-19T22:16:25.403Z,6.93
2022-10-19T22:18:54.014Z,7.00
2022-10-19T22:21:26.270Z,6.95
2022-10-19T22:23:59.321Z,7.60
2022-10-19T22:26:50.896Z,8.85
2022-10-19T22:29:18.857Z,8.70
2022-10-19T22:31:46.096Z,8.45
2022-10-19T22:34:16.234Z,9.73
2022-10-19T22:36:44.365Z,9.77
2022-10-19T22:39:12.802Z,8.90
2022-10-19T22:41:40.078Z,9.13
2022-10-19T22:44:07.522Z,8.52
2022-10-19T22:46:34.707Z,8.85
2022-10-19T22:49:02.256Z,9.10
2022-10-19T22:51:29.545Z,8.63
2022-10-19T22:53:57.066Z,8.10
2022-10-19T22:56:24.309Z,8.30
2022-10-19T22:58:51.808Z,9.20
2022-10-19T23:01:19.085Z,9.80
2022-10-19T23:03:46.493Z,10.70
2022-10-19T23:06:15.543Z,9.85
2022-10-19T23:08:44.575Z,10.02
2022-10-19T23:11:12.351Z,10.25
2022-10-19T23:13:40.337Z,9.98
2022-10-19T23:16:08.627Z,11.52
2022-10-19T23:18:38.794Z,10.32
2022-10-19T23:21:08.779Z,10.98
2022-10-19T23:23:37.263Z,10.98
2022-10-19T23:26:10.646Z,10.35
2022-10-19T23:28:39.907Z,10.75
2022-10-19T23:31:10.573Z,10.65
2022-10-19T23:33:38.203Z,11.00
2022-10-19T23:36:09.757Z,10.85
2022-10-19T23:38:37.222Z,11.05
2022-10-19T23:41:04.868Z,11.63
2022-10-19T23:43:32.837Z,11.18
2022-10-19T23:46:00.534Z,12.30
2022-10-19T23:48:28.273Z,11.35
2022-10-19T23:51:03.885Z,12.63
2022-10-19T23:56:13.944Z,16.63
2022-10-19T23:58:41.847Z,18.10
